sensor_id;sensor_type;location;lat;lon;timestamp;pressure;altitude;pressure_sealevel;temperature;humidity
20350;BME280;10332;50.208;18.988;2022-07-10T00:00:28;98145.50;;;16.81;77.19
20350;BME280;10332;50.208;18.988;2022-07-10T00:03:05;98141.75;;;16.83;76.90
20350;BME280;10332;50.208;18.988;2022-07-10T00:05:33;98145.34;;;16.82;77.39
20350;BME280;10332;50.208;18.988;2022-07-10T00:08:02;98142.88;;;16.81;77.31
20350;BME280;10332;50.208;18.988;2022-07-10T00:10:30;98138.31;;;16.73;77.38
20350;BME280;10332;50.208;18.988;2022-07-10T00:12:57;98133.44;;;16.68;77.53
20350;BME280;10332;50.208;18.988;2022-07-10T00:15:25;98131.31;;;16.62;78.18
20350;BME280;10332;50.208;18.988;2022-07-10T00:17:52;98126.19;;;16.61;78.28
20350;BME280;10332;50.208;18.988;2022-07-10T00:20:20;98123.31;;;16.54;78.83
20350;BME280;10332;50.208;18.988;2022-07-10T00:22:47;98122.59;;;16.52;78.77
20350;BME280;10332;50.208;18.988;2022-07-10T00:25:14;98125.97;;;190.15;78.63
20350;BME280;10332;50.208;18.988;2022-07-10T00:27:42;98129.84;;;16.50;79.09
20350;BME280;10332;50.208;18.988;2022-07-10T00:30:12;98115.84;;;16.40;79.70
20350;BME280;10332;50.208;18.988;2022-07-10T00:32:39;98117.91;;;16.46;79.15
20350;BME280;10332;50.208;18.988;2022-07-10T00:35:07;98115.28;;;16.46;79.40
20350;BME280;10332;50.208;18.988;2022-07-10T00:37:34;98111.25;;;16.42;79.76
20350;BME280;10332;50.208;18.988;2022-07-10T00:40:04;98113.50;;;16.37;80.46
20350;BME280;10332;50.208;18.988;2022-07-10T00:42:31;98104.31;;;16.41;80.06
20350;BME280;10332;50.208;18.988;2022-07-10T00:44:59;98099.34;;;16.38;80.40
20350;BME280;10332;50.208;18.988;2022-07-10T00:47:27;98102.25;;;16.35;81.02
20350;BME280;10332;50.208;18.988;2022-07-10T00:49:54;98096.28;;;16.33;81.26
20350;BME280;10332;50.208;18.988;2022-07-10T00:52:22;98098.50;;;16.37;81.50
20350;BME280;10332;50.208;18.988;2022-07-10T00:54:50;98098.78;;;16.34;81.73
20350;BME280;10332;50.208;18.988;2022-07-10T00:57:19;98103.34;;;16.42;81.27
20350;BME280;10332;50.208;18.988;2022-07-10T00:59:49;98096.00;;;16.45;80.84
20350;BME280;10332;50.208;18.988;2022-07-10T01:02:17;98105.72;;;16.45;81.12
20350;BME280;10332;50.208;18.988;2022-07-10T01:04:44;98089.31;;;16.51;80.92
20350;BME280;10332;50.208;18.988;2022-07-10T01:07:12;98090.00;;;16.53;80.78
20350;BME280;10332;50.208;18.988;2022-07-10T01:09:43;98084.06;;;16.51;81.39
20350;BME280;10332;50.208;18.988;2022-07-10T01:12:12;98084.31;;;16.58;80.79
20350;BME280;10332;50.208;18.988;2022-07-10T01:14:41;98080.72;;;16.49;81.58
20350;BME280;10332;50.208;18.988;2022-07-10T01:17:09;98083.78;;;16.54;81.53
20350;BME280;10332;50.208;18.988;2022-07-10T01:19:37;98086.53;;;16.53;81.73
20350;BME280;10332;50.208;18.988;2022-07-10T01:22:04;98079.47;;;16.53;81.84
20350;BME280;10332;50.208;18.988;2022-07-10T01:24:32;98082.50;;;16.58;81.58
20350;BME280;10332;50.208;18.988;2022-07-10T01:26:59;98074.59;;;16.58;81.47
20350;BME280;10332;50.208;18.988;2022-07-10T01:29:28;98079.59;;;16.61;81.30
20350;BME280;10332;50.208;18.988;2022-07-10T01:31:56;98075.28;;;16.60;81.44
20350;BME280;10332;50.208;18.988;2022-07-10T01:34:27;98068.06;;;16.62;81.39
20350;BME280;10332;50.208;18.988;2022-07-10T01:36:55;98075.69;;;16.65;81.29
20350;BME280;10332;50.208;18.988;2022-07-10T01:39:22;98072.91;;;16.67;81.09
20350;BME280;10332;50.208;18.988;2022-07-10T01:41:49;98066.97;;;16.65;81.20
20350;BME280;10332;50.208;18.988;2022-07-10T01:44:17;98073.75;;;16.67;81.07
20350;BME280;10332;50.208;18.988;2022-07-10T01:46:46;98062.66;;;16.73;80.97
20350;BME280;10332;50.208;18.988;2022-07-10T01:49:14;98070.28;;;16.67;81.37
20350;BME280;10332;50.208;18.988;2022-07-10T01:51:42;98063.09;;;16.69;81.24
20350;BME280;10332;50.208;18.988;2022-07-10T01:54:10;98055.44;;;16.76;81.24
20350;BME280;10332;50.208;18.988;2022-07-10T01:56:38;98050.31;;;16.74;81.20
20350;BME280;10332;50.208;18.988;2022-07-10T01:59:05;98048.94;;;16.70;81.52
20350;BME280;10332;50.208;18.988;2022-07-10T02:01:33;98048.94;;;16.70;81.86
20350;BME280;10332;50.208;18.988;2022-07-10T02:04:00;98042.41;;;16.64;82.08
20350;BME280;10332;50.208;18.988;2022-07-10T02:06:47;98049.34;;;16.65;82.14
20350;BME280;10332;50.208;18.988;2022-07-10T02:09:14;98037.41;;;16.61;82.69
20350;BME280;10332;50.208;18.988;2022-07-10T02:11:42;98032.28;;;16.69;82.21
20350;BME280;10332;50.208;18.988;2022-07-10T02:14:10;98033.00;;;16.71;81.92
20350;BME280;10332;50.208;18.988;2022-07-10T02:16:37;98034.66;;;16.72;81.95
20350;BME280;10332;50.208;18.988;2022-07-10T02:19:05;98036.16;;;16.75;81.79
20350;BME280;10332;50.208;18.988;2022-07-10T02:21:33;98033.81;;;16.72;82.03
20350;BME280;10332;50.208;18.988;2022-07-10T02:24:00;98031.03;;;16.73;81.67
20350;BME280;10332;50.208;18.988;2022-07-10T02:26:27;98037.56;;;16.69;82.18
20350;BME280;10332;50.208;18.988;2022-07-10T02:28:55;98024.38;;;16.69;82.30
20350;BME280;10332;50.208;18.988;2022-07-10T02:31:22;98030.19;;;16.73;82.25
20350;BME280;10332;50.208;18.988;2022-07-10T02:33:50;98029.91;;;16.66;82.73
20350;BME280;10332;50.208;18.988;2022-07-10T02:36:17;98026.03;;;16.61;83.01
20350;BME280;10332;50.208;18.988;2022-07-10T02:38:45;98022.72;;;16.68;82.52
20350;BME280;10332;50.208;18.988;2022-07-10T02:41:12;98020.34;;;16.65;82.38
20350;BME280;10332;50.208;18.988;2022-07-10T02:43:40;98018.94;;;16.71;82.33
20350;BME280;10332;50.208;18.988;2022-07-10T02:46:07;98011.75;;;16.73;82.14
20350;BME280;10332;50.208;18.988;2022-07-10T02:48:35;98007.56;;;16.70;82.30
20350;BME280;10332;50.208;18.988;2022-07-10T02:51:03;98012.16;;;16.68;82.33
20350;BME280;10332;50.208;18.988;2022-07-10T02:53:31;98014.81;;;16.68;82.30
20350;BME280;10332;50.208;18.988;2022-07-10T02:55:59;98010.22;;;16.61;82.87
20350;BME280;10332;50.208;18.988;2022-07-10T02:58:26;98017.97;;;16.62;82.72
20350;BME280;10332;50.208;18.988;2022-07-10T03:00:53;98010.38;;;16.59;82.81
20350;BME280;10332;50.208;18.988;2022-07-10T03:03:21;98013.00;;;16.59;82.83
20350;BME280;10332;50.208;18.988;2022-07-10T03:05:48;98009.13;;;16.63;82.67
20350;BME280;10332;50.208;18.988;2022-07-10T03:08:16;98011.59;;;16.65;82.54
20350;BME280;10332;50.208;18.988;2022-07-10T03:10:43;98003.28;;;16.69;82.37
20350;BME280;10332;50.208;18.988;2022-07-10T03:13:11;98009.69;;;16.57;83.20
20350;BME280;10332;50.208;18.988;2022-07-10T03:15:38;98000.91;;;16.66;82.73
20350;BME280;10332;50.208;18.988;2022-07-10T03:18:05;98002.72;;;16.66;82.83
20350;BME280;10332;50.208;18.988;2022-07-10T03:20:33;97993.41;;;16.62;82.93
20350;BME280;10332;50.208;18.988;2022-07-10T03:23:00;97995.22;;;16.61;83.11
20350;BME280;10332;50.208;18.988;2022-07-10T03:25:27;97991.50;;;16.64;83.24
20350;BME280;10332;50.208;18.988;2022-07-10T03:27:55;97988.72;;;16.65;83.03
20350;BME280;10332;50.208;18.988;2022-07-10T03:30:22;97993.97;;;16.65;83.06
20350;BME280;10332;50.208;18.988;2022-07-10T03:32:49;97995.47;;;16.78;82.67
20350;BME280;10332;50.208;18.988;2022-07-10T03:35:17;97996.47;;;16.77;82.91
20350;BME280;10332;50.208;18.988;2022-07-10T03:37:44;98004.09;;;16.70;83.05
20350;BME280;10332;50.208;18.988;2022-07-10T03:40:12;97997.75;;;16.72;83.01
20350;BME280;10332;50.208;18.988;2022-07-10T03:42:39;97991.19;;;16.77;82.96
20350;BME280;10332;50.208;18.988;2022-07-10T03:45:07;97997.13;;;16.79;82.73
20350;BME280;10332;50.208;18.988;2022-07-10T03:47:35;97996.03;;;16.81;82.81
20350;BME280;10332;50.208;18.988;2022-07-10T03:50:03;97999.19;;;16.85;82.82
20350;BME280;10332;50.208;18.988;2022-07-10T03:52:30;97996.25;;;16.88;82.79
20350;BME280;10332;50.208;18.988;2022-07-10T03:54:58;98000.84;;;16.86;82.82
20350;BME280;10332;50.208;18.988;2022-07-10T03:57:25;98011.84;;;16.81;83.03
20350;BME280;10332;50.208;18.988;2022-07-10T04:00:11;98012.69;;;16.82;83.38
20350;BME280;10332;50.208;18.988;2022-07-10T04:02:39;98003.19;;;16.89;83.07
20350;BME280;10332;50.208;18.988;2022-07-10T04:05:10;97999.53;;;16.99;82.83
20350;BME280;10332;50.208;18.988;2022-07-10T04:07:37;98011.03;;;17.08;82.67
20350;BME280;10332;50.208;18.988;2022-07-10T04:10:06;98008.44;;;17.16;82.70
20350;BME280;10332;50.208;18.988;2022-07-10T04:12:33;98013.88;;;17.15;82.77
20350;BME280;10332;50.208;18.988;2022-07-10T04:15:01;98005.78;;;17.26;81.83
20350;BME280;10332;50.208;18.988;2022-07-10T04:17:28;98005.84;;;17.34;81.61
20350;BME280;10332;50.208;18.988;2022-07-10T04:19:56;98005.84;;;17.34;81.80
20350;BME280;10332;50.208;18.988;2022-07-10T04:22:23;97997.56;;;17.47;81.52
20350;BME280;10332;50.208;18.988;2022-07-10T04:24:51;97997.34;;;17.58;80.97
20350;BME280;10332;50.208;18.988;2022-07-10T04:27:18;97995.44;;;17.68;80.63
20350;BME280;10332;50.208;18.988;2022-07-10T04:29:46;97994.38;;;17.71;80.69
20350;BME280;10332;50.208;18.988;2022-07-10T04:32:15;98003.84;;;17.64;80.94
20350;BME280;10332;50.208;18.988;2022-07-10T04:34:43;98001.56;;;17.51;81.61
20350;BME280;10332;50.208;18.988;2022-07-10T04:37:10;97999.81;;;17.59;81.29
20350;BME280;10332;50.208;18.988;2022-07-10T04:39:38;98007.16;;;17.48;81.78
20350;BME280;10332;50.208;18.988;2022-07-10T04:42:07;98000.56;;;17.52;81.70
20350;BME280;10332;50.208;18.988;2022-07-10T04:44:35;97998.91;;;17.51;81.77
20350;BME280;10332;50.208;18.988;2022-07-10T04:47:05;98002.84;;;17.47;81.85
20350;BME280;10332;50.208;18.988;2022-07-10T04:49:33;98003.44;;;17.58;81.75
20350;BME280;10332;50.208;18.988;2022-07-10T04:52:01;98012.06;;;17.78;80.99
20350;BME280;10332;50.208;18.988;2022-07-10T04:54:29;98015.59;;;18.05;79.73
20350;BME280;10332;50.208;18.988;2022-07-10T04:56:56;98016.75;;;18.28;78.71
20350;BME280;10332;50.208;18.988;2022-07-10T04:59:23;98020.84;;;18.49;77.81
20350;BME280;10332;50.208;18.988;2022-07-10T05:01:51;98025.47;;;18.47;77.02
20350;BME280;10332;50.208;18.988;2022-07-10T05:04:18;98026.72;;;18.60;77.23
20350;BME280;10332;50.208;18.988;2022-07-10T05:06:46;98030.34;;;18.85;76.12
20350;BME280;10332;50.208;18.988;2022-07-10T05:09:13;98022.84;;;19.07;75.34
20350;BME280;10332;50.208;18.988;2022-07-10T05:11:41;98023.56;;;19.25;74.08
20350;BME280;10332;50.208;18.988;2022-07-10T05:14:08;98031.88;;;19.46;73.41
20350;BME280;10332;50.208;18.988;2022-07-10T05:16:35;98031.03;;;19.38;72.74
20350;BME280;10332;50.208;18.988;2022-07-10T05:19:03;98032.44;;;19.08;73.33
20350;BME280;10332;50.208;18.988;2022-07-10T05:21:30;98036.41;;;19.12;73.46
20350;BME280;10332;50.208;18.988;2022-07-10T05:23:59;98030.50;;;19.26;73.08
20350;BME280;10332;50.208;18.988;2022-07-10T05:26:26;98034.03;;;19.43;72.05
20350;BME280;10332;50.208;18.988;2022-07-10T05:28:53;98030.69;;;19.24;72.36
20350;BME280;10332;50.208;18.988;2022-07-10T05:31:21;98030.66;;;19.16;72.45
20350;BME280;10332;50.208;18.988;2022-07-10T05:33:48;98034.91;;;19.09;72.42
20350;BME280;10332;50.208;18.988;2022-07-10T05:36:16;98038.81;;;19.39;71.68
20350;BME280;10332;50.208;18.988;2022-07-10T05:38:43;98031.44;;;19.67;70.90
20350;BME280;10332;50.208;18.988;2022-07-10T05:41:10;98030.78;;;19.57;70.69
20350;BME280;10332;50.208;18.988;2022-07-10T05:43:38;98039.50;;;19.41;71.06
20350;BME280;10332;50.208;18.988;2022-07-10T05:46:05;98017.91;;;19.70;70.42
20350;BME280;10332;50.208;18.988;2022-07-10T05:48:33;98031.97;;;19.79;70.33
20350;BME280;10332;50.208;18.988;2022-07-10T05:51:00;98037.94;;;19.73;69.12
20350;BME280;10332;50.208;18.988;2022-07-10T05:53:48;98030.34;;;19.86;68.25
20350;BME280;10332;50.208;18.988;2022-07-10T05:56:15;98019.88;;;20.01;67.78
20350;BME280;10332;50.208;18.988;2022-07-10T05:58:43;98030.84;;;19.98;66.67
20350;BME280;10332;50.208;18.988;2022-07-10T06:01:10;98023.72;;;19.98;66.53
20350;BME280;10332;50.208;18.988;2022-07-10T06:03:38;98026.69;;;19.95;66.44
20350;BME280;10332;50.208;18.988;2022-07-10T06:06:05;98022.72;;;20.16;66.58
20350;BME280;10332;50.208;18.988;2022-07-10T06:08:33;98024.72;;;20.05;66.37
20350;BME280;10332;50.208;18.988;2022-07-10T06:11:00;98019.03;;;19.76;67.38
20350;BME280;10332;50.208;18.988;2022-07-10T06:13:27;98024.34;;;19.76;67.39
20350;BME280;10332;50.208;18.988;2022-07-10T06:15:55;98016.75;;;19.89;66.41
20350;BME280;10332;50.208;18.988;2022-07-10T06:18:22;98017.06;;;20.35;65.46
20350;BME280;10332;50.208;18.988;2022-07-10T06:20:50;98018.00;;;20.66;63.26
20350;BME280;10332;50.208;18.988;2022-07-10T06:23:17;98020.00;;;21.12;61.52
20350;BME280;10332;50.208;18.988;2022-07-10T06:25:44;98031.56;;;20.88;60.88
20350;BME280;10332;50.208;18.988;2022-07-10T06:28:11;98025.66;;;20.53;61.34
20350;BME280;10332;50.208;18.988;2022-07-10T06:30:39;98023.38;;;20.26;61.84
20350;BME280;10332;50.208;18.988;2022-07-10T06:33:06;98029.66;;;20.25;61.97
20350;BME280;10332;50.208;18.988;2022-07-10T06:35:34;98025.66;;;20.37;61.56
20350;BME280;10332;50.208;18.988;2022-07-10T06:38:02;98026.66;;;20.52;61.30
20350;BME280;10332;50.208;18.988;2022-07-10T06:40:29;98025.03;;;20.98;60.06
20350;BME280;10332;50.208;18.988;2022-07-10T06:42:57;98028.38;;;21.40;59.23
20350;BME280;10332;50.208;18.988;2022-07-10T06:45:25;98028.28;;;21.17;59.08
20350;BME280;10332;50.208;18.988;2022-07-10T06:47:52;98052.50;;;20.66;59.95
20350;BME280;10332;50.208;18.988;2022-07-10T06:50:29;98044.06;;;20.55;60.27
20350;BME280;10332;50.208;18.988;2022-07-10T06:53:02;98039.56;;;20.63;60.79
20350;BME280;10332;50.208;18.988;2022-07-10T06:55:30;98032.00;;;21.00;60.19
20350;BME280;10332;50.208;18.988;2022-07-10T06:57:59;98037.19;;;21.32;59.10
20350;BME280;10332;50.208;18.988;2022-07-10T07:00:27;98044.69;;;21.20;59.18
20350;BME280;10332;50.208;18.988;2022-07-10T07:02:55;98040.91;;;21.15;58.86
20350;BME280;10332;50.208;18.988;2022-07-10T07:05:23;98039.63;;;21.42;57.14
20350;BME280;10332;50.208;18.988;2022-07-10T07:07:50;98037.28;;;21.47;55.93
20350;BME280;10332;50.208;18.988;2022-07-10T07:10:17;98052.69;;;21.51;56.44
20350;BME280;10332;50.208;18.988;2022-07-10T07:12:45;98055.91;;;21.70;55.99
20350;BME280;10332;50.208;18.988;2022-07-10T07:15:12;98057.84;;;22.07;54.07
20350;BME280;10332;50.208;18.988;2022-07-10T07:17:43;98055.19;;;22.45;51.23
20350;BME280;10332;50.208;18.988;2022-07-10T07:20:46;98045.63;;;23.03;50.63
20350;BME280;10332;50.208;18.988;2022-07-10T07:23:32;98055.72;;;23.07;49.45
20350;BME280;10332;50.208;18.988;2022-07-10T07:25:59;98052.13;;;23.00;48.68
20350;BME280;10332;50.208;18.988;2022-07-10T07:28:26;98047.53;;;23.38;48.58
20350;BME280;10332;50.208;18.988;2022-07-10T07:30:54;98048.19;;;23.11;48.74
20350;BME280;10332;50.208;18.988;2022-07-10T07:33:21;98046.66;;;23.02;48.71
20350;BME280;10332;50.208;18.988;2022-07-10T07:35:48;98055.03;;;22.61;49.39
20350;BME280;10332;50.208;18.988;2022-07-10T07:38:16;98059.47;;;22.31;49.75
20350;BME280;10332;50.208;18.988;2022-07-10T07:40:44;98061.00;;;22.48;50.53
20350;BME280;10332;50.208;18.988;2022-07-10T07:43:11;98056.38;;;22.94;48.47
20350;BME280;10332;50.208;18.988;2022-07-10T07:45:39;98050.09;;;23.17;48.63
20350;BME280;10332;50.208;18.988;2022-07-10T07:48:06;98054.59;;;23.46;48.41
20350;BME280;10332;50.208;18.988;2022-07-10T07:50:36;98055.22;;;23.84;48.24
20350;BME280;10332;50.208;18.988;2022-07-10T07:53:05;98058.22;;;23.96;47.39
20350;BME280;10332;50.208;18.988;2022-07-10T07:55:33;98059.97;;;23.89;47.61
20350;BME280;10332;50.208;18.988;2022-07-10T07:58:02;98060.91;;;23.60;47.67
20350;BME280;10332;50.208;18.988;2022-07-10T08:00:33;98068.34;;;23.49;48.13
20350;BME280;10332;50.208;18.988;2022-07-10T08:03:00;98059.19;;;23.37;48.07
20350;BME280;10332;50.208;18.988;2022-07-10T08:05:29;98074.38;;;23.22;47.90
20350;BME280;10332;50.208;18.988;2022-07-10T08:07:59;98062.69;;;23.23;47.78
20350;BME280;10332;50.208;18.988;2022-07-10T08:10:31;98054.00;;;23.50;48.25
20350;BME280;10332;50.208;18.988;2022-07-10T08:12:59;98053.53;;;23.62;47.56
20350;BME280;10332;50.208;18.988;2022-07-10T08:15:26;98057.97;;;23.91;46.65
20350;BME280;10332;50.208;18.988;2022-07-10T08:17:56;98059.03;;;23.96;45.98
20350;BME280;10332;50.208;18.988;2022-07-10T08:20:25;98058.91;;;24.04;46.47
20350;BME280;10332;50.208;18.988;2022-07-10T08:22:53;98053.44;;;24.34;45.34
20350;BME280;10332;50.208;18.988;2022-07-10T08:25:27;98056.31;;;24.32;43.70
20350;BME280;10332;50.208;18.988;2022-07-10T08:28:04;98069.56;;;24.47;42.77
20350;BME280;10332;50.208;18.988;2022-07-10T08:30:37;98056.16;;;24.41;42.40
20350;BME280;10332;50.208;18.988;2022-07-10T08:33:05;98060.69;;;24.40;42.17
20350;BME280;10332;50.208;18.988;2022-07-10T08:35:33;98047.59;;;24.80;42.47
20350;BME280;10332;50.208;18.988;2022-07-10T08:38:00;98054.69;;;24.94;40.78
20350;BME280;10332;50.208;18.988;2022-07-10T08:40:35;98056.75;;;25.33;40.37
20350;BME280;10332;50.208;18.988;2022-07-10T08:43:06;98051.28;;;25.48;39.82
20350;BME280;10332;50.208;18.988;2022-07-10T08:45:33;98049.00;;;26.26;39.60
20350;BME280;10332;50.208;18.988;2022-07-10T08:48:06;98066.28;;;26.30;37.89
20350;BME280;10332;50.208;18.988;2022-07-10T08:50:42;98052.47;;;26.20;38.33
20350;BME280;10332;50.208;18.988;2022-07-10T08:53:37;98057.41;;;25.35;39.37
20350;BME280;10332;50.208;18.988;2022-07-10T08:56:06;98061.81;;;24.80;41.21
20350;BME280;10332;50.208;18.988;2022-07-10T08:58:35;98058.25;;;24.24;41.86
20350;BME280;10332;50.208;18.988;2022-07-10T09:01:10;98070.19;;;23.49;43.75
20350;BME280;10332;50.208;18.988;2022-07-10T09:03:37;98077.03;;;23.22;44.90
20350;BME280;10332;50.208;18.988;2022-07-10T09:06:05;98073.63;;;23.28;44.17
20350;BME280;10332;50.208;18.988;2022-07-10T09:08:34;98069.53;;;23.62;44.39
20350;BME280;10332;50.208;18.988;2022-07-10T09:11:18;98073.06;;;23.84;43.05
20350;BME280;10332;50.208;18.988;2022-07-10T09:13:53;98077.81;;;23.88;41.47
20350;BME280;10332;50.208;18.988;2022-07-10T09:16:32;98073.66;;;24.00;41.52
20350;BME280;10332;50.208;18.988;2022-07-10T09:19:28;98070.28;;;24.13;39.94
20350;BME280;10332;50.208;18.988;2022-07-10T09:22:08;98072.81;;;24.21;39.94
20350;BME280;10332;50.208;18.988;2022-07-10T09:24:43;98070.16;;;24.21;38.96
20350;BME280;10332;50.208;18.988;2022-07-10T09:27:13;98072.59;;;24.66;39.17
20350;BME280;10332;50.208;18.988;2022-07-10T09:29:52;98065.91;;;25.59;38.78
20350;BME280;10332;50.208;18.988;2022-07-10T09:32:25;98061.56;;;26.65;37.07
20350;BME280;10332;50.208;18.988;2022-07-10T09:34:53;98053.94;;;27.40;35.53
20350;BME280;10332;50.208;18.988;2022-07-10T09:37:42;98062.25;;;28.15;34.34
20350;BME280;10332;50.208;18.988;2022-07-10T09:40:10;98048.34;;;27.93;33.51
20350;BME280;10332;50.208;18.988;2022-07-10T09:42:40;98056.06;;;27.76;34.86
20350;BME280;10332;50.208;18.988;2022-07-10T09:47:43;98067.88;;;27.24;34.00
20350;BME280;10332;50.208;18.988;2022-07-10T09:50:35;98050.81;;;27.50;33.48
20350;BME280;10332;50.208;18.988;2022-07-10T09:53:08;98070.31;;;27.25;33.50
20350;BME280;10332;50.208;18.988;2022-07-10T09:55:40;98066.50;;;26.35;34.91
20350;BME280;10332;50.208;18.988;2022-07-10T09:58:09;98072.91;;;25.60;36.15
20350;BME280;10332;50.208;18.988;2022-07-10T10:00:40;98063.78;;;25.41;36.65
20350;BME280;10332;50.208;18.988;2022-07-10T10:03:11;98067.91;;;25.02;36.98
20350;BME280;10332;50.208;18.988;2022-07-10T10:05:55;98068.28;;;24.71;37.58
20350;BME280;10332;50.208;18.988;2022-07-10T10:08:29;98073.00;;;24.20;38.90
20350;BME280;10332;50.208;18.988;2022-07-10T10:10:59;98067.53;;;23.64;39.97
20350;BME280;10332;50.208;18.988;2022-07-10T10:13:29;98071.25;;;23.04;40.50
20350;BME280;10332;50.208;18.988;2022-07-10T10:16:00;98091.91;;;22.49;42.31
20350;BME280;10332;50.208;18.988;2022-07-10T10:18:29;98076.19;;;21.94;42.93
20350;BME280;10332;50.208;18.988;2022-07-10T10:20:57;98083.72;;;21.59;44.68
20350;BME280;10332;50.208;18.988;2022-07-10T10:23:25;98074.31;;;21.48;45.13
20350;BME280;10332;50.208;18.988;2022-07-10T10:25:56;98064.97;;;21.52;43.59
20350;BME280;10332;50.208;18.988;2022-07-10T10:28:25;98062.19;;;21.77;43.37
20350;BME280;10332;50.208;18.988;2022-07-10T10:30:57;98063.81;;;22.09;42.34
20350;BME280;10332;50.208;18.988;2022-07-10T10:36:04;98059.09;;;23.45;39.51
20350;BME280;10332;50.208;18.988;2022-07-10T10:41:41;98058.22;;;26.10;35.65
20350;BME280;10332;50.208;18.988;2022-07-10T10:49:18;98047.13;;;29.50;30.80
20350;BME280;10332;50.208;18.988;2022-07-10T10:52:03;98045.25;;;30.11;30.96
20350;BME280;10332;50.208;18.988;2022-07-10T11:00:08;98037.13;;;29.21;30.70
20350;BME280;10332;50.208;18.988;2022-07-10T11:02:38;98042.34;;;28.97;31.38
20350;BME280;10332;50.208;18.988;2022-07-10T11:08:02;98043.91;;;29.05;31.58
20350;BME280;10332;50.208;18.988;2022-07-10T11:13:15;98036.19;;;28.90;31.04
20350;BME280;10332;50.208;18.988;2022-07-10T11:15:49;98038.38;;;28.75;31.37
20350;BME280;10332;50.208;18.988;2022-07-10T11:18:21;98030.81;;;28.90;30.73
20350;BME280;10332;50.208;18.988;2022-07-10T11:20:56;98031.81;;;28.52;30.18
20350;BME280;10332;50.208;18.988;2022-07-10T11:27:21;98045.16;;;27.26;31.98
20350;BME280;10332;50.208;18.988;2022-07-10T11:29:59;98046.84;;;27.59;31.62
20350;BME280;10332;50.208;18.988;2022-07-10T11:32:28;98043.53;;;28.02;31.37
20350;BME280;10332;50.208;18.988;2022-07-10T11:34:57;98041.69;;;27.70;31.76
20350;BME280;10332;50.208;18.988;2022-07-10T11:37:24;98066.09;;;27.49;31.99
20350;BME280;10332;50.208;18.988;2022-07-10T11:40:11;98065.47;;;27.92;31.86
20350;BME280;10332;50.208;18.988;2022-07-10T11:42:55;98058.00;;;28.00;31.97
20350;BME280;10332;50.208;18.988;2022-07-10T11:45:31;98059.97;;;27.87;32.45
20350;BME280;10332;50.208;18.988;2022-07-10T11:48:00;98048.09;;;27.69;32.66
20350;BME280;10332;50.208;18.988;2022-07-10T11:50:34;98052.97;;;27.34;32.79
20350;BME280;10332;50.208;18.988;2022-07-10T11:53:03;98061.31;;;26.86;32.13
20350;BME280;10332;50.208;18.988;2022-07-10T11:55:32;98051.44;;;26.80;32.56
20350;BME280;10332;50.208;18.988;2022-07-10T11:58:16;98045.47;;;26.72;33.32
20350;BME280;10332;50.208;18.988;2022-07-10T12:00:58;98056.81;;;26.87;32.70
20350;BME280;10332;50.208;18.988;2022-07-10T12:03:26;98055.56;;;26.90;32.28
20350;BME280;10332;50.208;18.988;2022-07-10T12:06:02;98051.47;;;26.61;32.66
20350;BME280;10332;50.208;18.988;2022-07-10T12:08:47;98059.25;;;26.09;31.68
20350;BME280;10332;50.208;18.988;2022-07-10T12:11:17;98052.06;;;26.29;32.40
20350;BME280;10332;50.208;18.988;2022-07-10T12:13:48;98064.63;;;26.69;31.05
20350;BME280;10332;50.208;18.988;2022-07-10T12:16:17;98059.97;;;27.35;31.15
20350;BME280;10332;50.208;18.988;2022-07-10T12:18:46;98051.47;;;27.90;30.85
20350;BME280;10332;50.208;18.988;2022-07-10T12:21:14;98053.94;;;27.91;29.80
20350;BME280;10332;50.208;18.988;2022-07-10T12:23:44;98061.53;;;28.26;29.36
20350;BME280;10332;50.208;18.988;2022-07-10T12:26:13;98063.59;;;28.31;29.67
20350;BME280;10332;50.208;18.988;2022-07-10T12:28:55;98063.44;;;28.19;29.80
20350;BME280;10332;50.208;18.988;2022-07-10T12:31:29;98062.72;;;28.05;30.20
20350;BME280;10332;50.208;18.988;2022-07-10T12:34:00;98069.13;;;27.66;30.74
20350;BME280;10332;50.208;18.988;2022-07-10T12:36:52;98076.75;;;27.11;30.99
20350;BME280;10332;50.208;18.988;2022-07-10T12:39:24;98082.34;;;26.76;29.55
20350;BME280;10332;50.208;18.988;2022-07-10T12:42:02;98073.06;;;26.92;29.57
20350;BME280;10332;50.208;18.988;2022-07-10T12:44:44;98078.88;;;26.63;29.82
20350;BME280;10332;50.208;18.988;2022-07-10T12:47:17;98074.34;;;26.50;30.63
20350;BME280;10332;50.208;18.988;2022-07-10T12:49:59;98067.91;;;26.11;31.34
20350;BME280;10332;50.208;18.988;2022-07-10T12:52:34;98070.84;;;25.55;31.56
20350;BME280;10332;50.208;18.988;2022-07-10T12:55:15;98078.88;;;24.86;33.01
20350;BME280;10332;50.208;18.988;2022-07-10T12:57:53;98082.66;;;24.42;34.13
20350;BME280;10332;50.208;18.988;2022-07-10T13:00:27;98080.69;;;23.87;36.00
20350;BME280;10332;50.208;18.988;2022-07-10T13:03:16;98075.78;;;23.69;37.04
20350;BME280;10332;50.208;18.988;2022-07-10T13:05:45;98079.03;;;23.64;37.37
20350;BME280;10332;50.208;18.988;2022-07-10T13:08:18;98083.66;;;23.77;37.07
20350;BME280;10332;50.208;18.988;2022-07-10T13:10:50;98063.59;;;24.73;36.11
20350;BME280;10332;50.208;18.988;2022-07-10T13:13:18;98062.50;;;25.30;35.33
20350;BME280;10332;50.208;18.988;2022-07-10T13:15:46;98072.81;;;25.94;34.47
20350;BME280;10332;50.208;18.988;2022-07-10T13:18:26;98054.78;;;26.56;34.19
20350;BME280;10332;50.208;18.988;2022-07-10T13:20:56;98063.41;;;26.65;33.64
20350;BME280;10332;50.208;18.988;2022-07-10T13:23:29;98056.72;;;27.20;32.52
20350;BME280;10332;50.208;18.988;2022-07-10T13:25:57;98059.25;;;27.60;32.28
20350;BME280;10332;50.208;18.988;2022-07-10T13:28:30;98054.97;;;27.90;31.24
20350;BME280;10332;50.208;18.988;2022-07-10T13:30:57;98048.31;;;27.68;30.84
20350;BME280;10332;50.208;18.988;2022-07-10T13:33:25;98048.50;;;27.15;30.68